sensor_id;sensor_type;location;lat;lon;timestamp;pressure;altitude;pressure_sealevel;temperature;humidity
72677;BME280;60755;51.374;10.662;2024-02-15T00:02:11;97408.97;;;10.26;100.00
72677;BME280;60755;51.374;10.662;2024-02-15T00:04:39;97413.53;;;10.65;100.00
72677;BME280;60755;51.374;10.662;2024-02-15T00:07:06;97396.94;;;10.77;100.00
72677;BME280;60755;51.374;10.662;2024-02-15T00:09:33;97393.97;;;10.85;100.00
72677;BME280;60755;51.374;10.662;2024-02-15T00:12:00;97400.81;;;10.86;100.00
72677;BME280;60755;51.374;10.662;2024-02-15T00:14:27;97400.25;;;10.84;100.00
72677;BME280;60755;51.374;10.662;2024-02-15T00:16:54;97400.38;;;10.65;100.00
72677;BME280;60755;51.374;10.662;2024-02-15T00:19:21;97400.03;;;10.74;100.00
72677;BME280;60755;51.374;10.662;2024-02-15T00:21:50;97390.34;;;10.62;100.00
72677;BME280;60755;51.374;10.662;2024-02-15T00:24:17;97387.84;;;10.68;100.00
72677;BME280;60755;51.374;10.662;2024-02-15T00:26:45;97393.19;;;10.73;100.00
72677;BME280;60755;51.374;10.662;2024-02-15T00:29:12;97393.56;;;10.53;100.00
72677;BME280;60755;51.374;10.662;2024-02-15T00:31:39;97387.78;;;10.79;100.00
72677;BME280;60755;51.374;10.662;2024-02-15T00:34:06;97385.06;;;10.74;100.00
72677;BME280;60755;51.374;10.662;2024-02-15T00:36:34;97389.63;;;10.79;100.00
72677;BME280;60755;51.374;10.662;2024-02-15T00:39:02;97386.50;;;10.93;100.00
72677;BME280;60755;51.374;10.662;2024-02-15T00:41:32;97393.03;;;10.91;100.00
72677;BME280;60755;51.374;10.662;2024-02-15T00:43:59;97383.97;;;10.99;100.00
72677;BME280;60755;51.374;10.662;2024-02-15T00:46:26;97375.56;;;10.85;100.00
72677;BME280;60755;51.374;10.662;2024-02-15T00:48:54;97380.09;;;10.89;100.00
72677;BME280;60755;51.374;10.662;2024-02-15T00:51:22;97385.94;;;10.91;100.00
72677;BME280;60755;51.374;10.662;2024-02-15T00:53:49;97385.41;;;10.78;100.00
72677;BME280;60755;51.374;10.662;2024-02-15T00:56:17;97390.44;;;10.79;100.00
72677;BME280;60755;51.374;10.662;2024-02-15T00:58:44;97385.97;;;10.80;100.00
72677;BME280;60755;51.374;10.662;2024-02-15T01:01:11;97387.34;;;10.71;100.00
72677;BME280;60755;51.374;10.662;2024-02-15T01:03:38;97385.56;;;10.59;100.00
72677;BME280;60755;51.374;10.662;2024-02-15T01:06:05;97387.94;;;10.49;100.00
72677;BME280;60755;51.374;10.662;2024-02-15T01:08:33;97388.28;;;10.64;100.00
72677;BME280;60755;51.374;10.662;2024-02-15T01:11:00;97399.16;;;10.45;100.00
72677;BME280;60755;51.374;10.662;2024-02-15T01:13:28;97392.41;;;10.49;100.00
72677;BME280;60755;51.374;10.662;2024-02-15T01:15:55;97383.13;;;10.70;100.00
72677;BME280;60755;51.374;10.662;2024-02-15T01:18:22;97385.97;;;10.80;100.00
72677;BME280;60755;51.374;10.662;2024-02-15T01:20:49;97384.03;;;10.75;100.00
72677;BME280;60755;51.374;10.662;2024-02-15T01:23:16;97394.19;;;10.83;100.00
72677;BME280;60755;51.374;10.662;2024-02-15T01:25:43;97391.78;;;10.82;100.00
72677;BME280;60755;51.374;10.662;2024-02-15T01:28:11;97393.25;;;10.89;100.00
72677;BME280;60755;51.374;10.662;2024-02-15T01:30:39;97386.97;;;10.90;100.00
72677;BME280;60755;51.374;10.662;2024-02-15T01:33:09;97394.84;;;10.90;100.00
72677;BME280;60755;51.374;10.662;2024-02-15T01:35:37;97394.28;;;10.88;100.00
72677;BME280;60755;51.374;10.662;2024-02-15T01:38:05;97391.47;;;10.67;100.00
72677;BME280;60755;51.374;10.662;2024-02-15T01:40:32;97395.34;;;10.76;100.00
72677;BME280;60755;51.374;10.662;2024-02-15T01:42:58;97392.13;;;10.85;100.00
72677;BME280;60755;51.374;10.662;2024-02-15T01:45:26;97393.41;;;10.83;100.00
72677;BME280;60755;51.374;10.662;2024-02-15T01:47:55;97391.91;;;10.87;100.00
72677;BME280;60755;51.374;10.662;2024-02-15T01:50:23;97394.53;;;10.87;100.00
72677;BME280;60755;51.374;10.662;2024-02-15T01:52:52;97395.09;;;10.89;100.00
72677;BME280;60755;51.374;10.662;2024-02-15T01:55:22;97392.88;;;10.98;100.00
72677;BME280;60755;51.374;10.662;2024-02-15T01:57:53;97394.28;;;11.00;100.00
72677;BME280;60755;51.374;10.662;2024-02-15T02:00:21;97392.88;;;10.98;100.00
72677;BME280;60755;51.374;10.662;2024-02-15T02:02:50;97393.50;;;10.88;100.00
72677;BME280;60755;51.374;10.662;2024-02-15T02:05:20;97388.03;;;10.78;100.00
72677;BME280;60755;51.374;10.662;2024-02-15T02:07:48;97394.47;;;10.99;100.00
72677;BME280;60755;51.374;10.662;2024-02-15T02:10:15;97385.22;;;10.96;100.00
72677;BME280;60755;51.374;10.662;2024-02-15T02:12:42;97383.38;;;11.08;100.00
72677;BME280;60755;51.374;10.662;2024-02-15T02:15:09;97383.28;;;11.03;100.00
72677;BME280;60755;51.374;10.662;2024-02-15T02:17:37;97388.72;;;11.13;100.00
72677;BME280;60755;51.374;10.662;2024-02-15T02:20:07;97389.88;;;10.77;100.00
72677;BME280;60755;51.374;10.662;2024-02-15T02:22:37;97390.41;;;10.91;100.00
72677;BME280;60755;51.374;10.662;2024-02-15T02:25:08;97390.31;;;11.14;100.00
72677;BME280;60755;51.374;10.662;2024-02-15T02:27:36;97378.06;;;11.20;100.00
72677;BME280;60755;51.374;10.662;2024-02-15T02:30:04;97385.28;;;11.13;100.00
72677;BME280;60755;51.374;10.662;2024-02-15T02:32:35;97378.19;;;11.13;100.00
72677;BME280;60755;51.374;10.662;2024-02-15T02:35:04;97379.25;;;11.12;100.00
72677;BME280;60755;51.374;10.662;2024-02-15T02:37:32;97377.16;;;10.86;100.00
72677;BME280;60755;51.374;10.662;2024-02-15T02:40:01;97376.59;;;11.12;100.00
72677;BME280;60755;51.374;10.662;2024-02-15T02:42:29;97379.97;;;10.96;100.00
72677;BME280;60755;51.374;10.662;2024-02-15T02:44:56;97382.09;;;11.11;100.00
72677;BME280;60755;51.374;10.662;2024-02-15T02:47:23;97378.03;;;11.32;100.00
72677;BME280;60755;51.374;10.662;2024-02-15T02:49:50;97372.59;;;11.38;100.00
72677;BME280;60755;51.374;10.662;2024-02-15T02:52:17;97375.41;;;11.32;100.00
72677;BME280;60755;51.374;10.662;2024-02-15T02:54:44;97377.66;;;11.11;100.00
72677;BME280;60755;51.374;10.662;2024-02-15T02:57:11;97386.75;;;10.92;100.00
72677;BME280;60755;51.374;10.662;2024-02-15T02:59:40;97383.41;;;10.97;100.00
72677;BME280;60755;51.374;10.662;2024-02-15T03:02:07;97387.22;;;11.17;100.00
72677;BME280;60755;51.374;10.662;2024-02-15T03:04:34;97369.75;;;11.11;100.00
72677;BME280;60755;51.374;10.662;2024-02-15T03:07:00;97378.13;;;11.08;100.00
72677;BME280;60755;51.374;10.662;2024-02-15T03:09:27;97379.78;;;11.14;100.00
72677;BME280;60755;51.374;10.662;2024-02-15T03:11:55;97379.91;;;11.19;100.00
72677;BME280;60755;51.374;10.662;2024-02-15T03:14:23;97385.06;;;11.14;100.00
72677;BME280;60755;51.374;10.662;2024-02-15T03:16:52;97386.44;;;11.17;100.00
72677;BME280;60755;51.374;10.662;2024-02-15T03:19:21;97379.66;;;11.21;100.00
72677;BME280;60755;51.374;10.662;2024-02-15T03:21:49;97390.19;;;11.21;100.00
72677;BME280;60755;51.374;10.662;2024-02-15T03:24:18;97387.78;;;11.19;100.00
72677;BME280;60755;51.374;10.662;2024-02-15T03:26:46;97375.13;;;11.16;100.00
72677;BME280;60755;51.374;10.662;2024-02-15T03:29:12;97370.84;;;11.27;100.00
72677;BME280;60755;51.374;10.662;2024-02-15T03:31:39;97368.59;;;11.19;100.00
72677;BME280;60755;51.374;10.662;2024-02-15T03:34:08;97367.91;;;11.12;100.00
72677;BME280;60755;51.374;10.662;2024-02-15T03:36:36;97373.69;;;10.97;100.00
72677;BME280;60755;51.374;10.662;2024-02-15T03:39:03;97369.63;;;11.18;100.00
72677;BME280;60755;51.374;10.662;2024-02-15T03:41:31;97380.88;;;11.02;100.00
72677;BME280;60755;51.374;10.662;2024-02-15T03:43:58;97377.66;;;11.11;100.00
72677;BME280;60755;51.374;10.662;2024-02-15T03:46:25;97388.06;;;11.06;100.00
72677;BME280;60755;51.374;10.662;2024-02-15T03:48:53;97387.91;;;11.25;100.00
72677;BME280;60755;51.374;10.662;2024-02-15T03:51:21;97384.31;;;11.31;100.00
72677;BME280;60755;51.374;10.662;2024-02-15T03:53:50;97389.88;;;11.17;100.00
72677;BME280;60755;51.374;10.662;2024-02-15T03:56:17;97386.47;;;11.34;99.47
72677;BME280;60755;51.374;10.662;2024-02-15T03:58:45;97398.22;;;11.14;100.00
72677;BME280;60755;51.374;10.662;2024-02-15T04:01:12;97389.00;;;11.29;100.00
72677;BME280;60755;51.374;10.662;2024-02-15T04:03:41;97397.16;;;11.27;100.00
72677;BME280;60755;51.374;10.662;2024-02-15T04:06:07;97388.88;;;11.35;99.83
72677;BME280;60755;51.374;10.662;2024-02-15T04:08:38;97391.03;;;11.38;99.52
72677;BME280;60755;51.374;10.662;2024-02-15T04:11:05;97393.25;;;11.30;100.00
72677;BME280;60755;51.374;10.662;2024-02-15T04:13:33;97393.34;;;11.35;100.00
72677;BME280;60755;51.374;10.662;2024-02-15T04:16:00;97392.94;;;11.14;100.00
72677;BME280;60755;51.374;10.662;2024-02-15T04:18:27;97396.44;;;11.03;100.00
72677;BME280;60755;51.374;10.662;2024-02-15T04:20:55;97401.50;;;11.21;100.00
72677;BME280;60755;51.374;10.662;2024-02-15T04:23:22;97403.03;;;11.17;100.00
72677;BME280;60755;51.374;10.662;2024-02-15T04:25:51;97398.84;;;11.33;100.00
72677;BME280;60755;51.374;10.662;2024-02-15T04:28:17;97402.22;;;11.17;100.00
72677;BME280;60755;51.374;10.662;2024-02-15T04:30:44;97398.88;;;11.21;100.00
72677;BME280;60755;51.374;10.662;2024-02-15T04:33:14;97400.41;;;11.06;100.00
72677;BME280;60755;51.374;10.662;2024-02-15T04:35:42;97393.25;;;11.01;100.00
72677;BME280;60755;51.374;10.662;2024-02-15T04:38:09;97398.22;;;11.14;100.00
72677;BME280;60755;51.374;10.662;2024-02-15T04:40:36;97393.31;;;11.06;100.00
72677;BME280;60755;51.374;10.662;2024-02-15T04:43:06;97391.09;;;11.27;100.00
72677;BME280;60755;51.374;10.662;2024-02-15T04:45:34;97395.03;;;11.12;100.00
72677;BME280;60755;51.374;10.662;2024-02-15T04:48:02;97389.69;;;11.36;100.00
72677;BME280;60755;51.374;10.662;2024-02-15T04:50:29;97385.72;;;11.50;99.72
72677;BME280;60755;51.374;10.662;2024-02-15T04:52:56;97386.22;;;11.47;99.38
72677;BME280;60755;51.374;10.662;2024-02-15T04:55:23;97386.09;;;11.42;99.68
72677;BME280;60755;51.374;10.662;2024-02-15T04:57:52;97386.38;;;11.29;100.00
72677;BME280;60755;51.374;10.662;2024-02-15T05:00:23;97387.66;;;11.26;100.00
72677;BME280;60755;51.374;10.662;2024-02-15T05:02:51;97398.88;;;11.21;100.00
72677;BME280;60755;51.374;10.662;2024-02-15T05:07:47;97394.47;;;10.99;100.00
72677;BME280;60755;51.374;10.662;2024-02-15T05:10:16;97397.41;;;11.14;100.00
72677;BME280;60755;51.374;10.662;2024-02-15T05:12:43;97395.50;;;11.09;100.00
72677;BME280;60755;51.374;10.662;2024-02-15T05:15:10;97403.03;;;11.17;100.00
72677;BME280;60755;51.374;10.662;2024-02-15T05:17:40;97406.69;;;11.05;100.00
72677;BME280;60755;51.374;10.662;2024-02-15T05:20:08;97396.97;;;11.17;100.00
72677;BME280;60755;51.374;10.662;2024-02-15T05:22:39;97395.44;;;11.21;100.00
72677;BME280;60755;51.374;10.662;2024-02-15T05:25:09;97390.38;;;11.03;100.00
72677;BME280;60755;51.374;10.662;2024-02-15T05:27:38;97395.31;;;10.99;100.00
72677;BME280;60755;51.374;10.662;2024-02-15T05:30:05;97404.19;;;10.98;100.00
72677;BME280;60755;51.374;10.662;2024-02-15T05:32:34;97392.09;;;10.97;100.00
72677;BME280;60755;51.374;10.662;2024-02-15T05:35:09;97397.34;;;10.97;100.00
72677;BME280;60755;51.374;10.662;2024-02-15T05:37:37;97404.13;;;10.93;100.00
72677;BME280;60755;51.374;10.662;2024-02-15T05:40:05;97392.00;;;10.92;100.00
72677;BME280;60755;51.374;10.662;2024-02-15T05:42:32;97396.69;;;10.90;100.00
72677;BME280;60755;51.374;10.662;2024-02-15T05:45:27;97404.47;;;10.85;100.00
72677;BME280;60755;51.374;10.662;2024-02-15T05:47:58;97400.47;;;10.94;100.00
72677;BME280;60755;51.374;10.662;2024-02-15T05:50:27;97398.94;;;10.98;100.00
72677;BME280;60755;51.374;10.662;2024-02-15T05:52:56;97401.50;;;10.93;100.00
72677;BME280;60755;51.374;10.662;2024-02-15T05:55:24;97393.56;;;11.05;100.00
72677;BME280;60755;51.374;10.662;2024-02-15T05:57:52;97387.94;;;11.13;100.00
72677;BME280;60755;51.374;10.662;2024-02-15T06:00:20;97388.50;;;11.15;100.00
72677;BME280;60755;51.374;10.662;2024-02-15T06:02:48;97390.09;;;11.16;100.00
72677;BME280;60755;51.374;10.662;2024-02-15T06:05:15;97390.25;;;11.09;100.00
72677;BME280;60755;51.374;10.662;2024-02-15T06:07:44;97397.53;;;11.19;100.00
72677;BME280;60755;51.374;10.662;2024-02-15T06:10:11;97392.50;;;11.17;100.00
72677;BME280;60755;51.374;10.662;2024-02-15T06:12:39;97396.63;;;11.13;100.00
72677;BME280;60755;51.374;10.662;2024-02-15T06:15:06;97393.09;;;11.08;100.00
72677;BME280;60755;51.374;10.662;2024-02-15T06:17:41;97394.09;;;11.18;100.00
72677;BME280;60755;51.374;10.662;2024-02-15T06:20:11;97399.16;;;11.08;100.00
72677;BME280;60755;51.374;10.662;2024-02-15T06:22:40;97395.81;;;11.13;100.00
72677;BME280;60755;51.374;10.662;2024-02-15T06:25:09;97399.63;;;11.05;100.00
72677;BME280;60755;51.374;10.662;2024-02-15T06:27:36;97400.75;;;11.09;100.00
72677;BME280;60755;51.374;10.662;2024-02-15T06:30:07;97401.56;;;10.98;100.00
72677;BME280;60755;51.374;10.662;2024-02-15T06:32:52;97408.53;;;11.04;100.00
72677;BME280;60755;51.374;10.662;2024-02-15T06:35:37;97406.56;;;10.83;100.00
72677;BME280;60755;51.374;10.662;2024-02-15T06:38:23;97410.19;;;10.82;100.00
72677;BME280;60755;51.374;10.662;2024-02-15T06:41:08;97412.00;;;10.93;100.00
72677;BME280;60755;51.374;10.662;2024-02-15T06:43:35;97413.13;;;10.97;100.00
72677;BME280;60755;51.374;10.662;2024-02-15T06:46:06;97422.06;;;10.96;100.00
72677;BME280;60755;51.374;10.662;2024-02-15T06:48:33;97419.22;;;10.86;100.00
72677;BME280;60755;51.374;10.662;2024-02-15T06:51:00;97422.97;;;10.90;100.00
72677;BME280;60755;51.374;10.662;2024-02-15T06:53:27;97422.53;;;10.93;100.00
72677;BME280;60755;51.374;10.662;2024-02-15T06:55:54;97424.00;;;11.01;100.00
72677;BME280;60755;51.374;10.662;2024-02-15T06:58:22;97428.22;;;11.02;100.00
72677;BME280;60755;51.374;10.662;2024-02-15T07:00:49;97437.47;;;11.04;100.00
72677;BME280;60755;51.374;10.662;2024-02-15T07:03:16;97436.66;;;11.15;100.00
72677;BME280;60755;51.374;10.662;2024-02-15T07:05:43;97446.69;;;11.18;100.00
72677;BME280;60755;51.374;10.662;2024-02-15T07:08:10;97438.50;;;11.03;100.00
72677;BME280;60755;51.374;10.662;2024-02-15T07:10:38;97445.78;;;11.25;100.00
72677;BME280;60755;51.374;10.662;2024-02-15T07:13:05;97439.66;;;11.07;100.00
72677;BME280;60755;51.374;10.662;2024-02-15T07:15:34;97428.53;;;11.17;100.00
72677;BME280;60755;51.374;10.662;2024-02-15T07:18:04;97428.31;;;11.07;100.00
72677;BME280;60755;51.374;10.662;2024-02-15T07:20:31;97417.09;;;11.11;100.00
72677;BME280;60755;51.374;10.662;2024-02-15T07:22:59;97417.09;;;11.11;100.00
72677;BME280;60755;51.374;10.662;2024-02-15T07:25:26;97419.00;;;11.28;100.00
72677;BME280;60755;51.374;10.662;2024-02-15T07:27:53;97425.72;;;11.35;100.00
72677;BME280;60755;51.374;10.662;2024-02-15T07:30:20;97409.97;;;11.52;100.00
72677;BME280;60755;51.374;10.662;2024-02-15T07:32:50;97415.09;;;11.59;99.54
72677;BME280;60755;51.374;10.662;2024-02-15T07:35:18;97415.41;;;11.62;99.75
72677;BME280;60755;51.374;10.662;2024-02-15T07:37:54;97419.06;;;11.61;99.56
72677;BME280;60755;51.374;10.662;2024-02-15T07:40:24;97412.25;;;11.77;99.89
72677;BME280;60755;51.374;10.662;2024-02-15T07:42:56;97403.81;;;11.92;98.75
72677;BME280;60755;51.374;10.662;2024-02-15T07:45:23;97411.44;;;12.05;98.25
72677;BME280;60755;51.374;10.662;2024-02-15T07:47:51;97414.38;;;11.92;98.42
72677;BME280;60755;51.374;10.662;2024-02-15T07:50:19;97415.53;;;12.35;97.54
72677;BME280;60755;51.374;10.662;2024-02-15T07:52:48;97415.53;;;12.35;97.06
72677;BME280;60755;51.374;10.662;2024-02-15T07:55:16;97415.34;;;12.58;95.24
72677;BME280;60755;51.374;10.662;2024-02-15T07:57:44;97420.63;;;12.58;95.55
72677;BME280;60755;51.374;10.662;2024-02-15T08:00:12;97419.25;;;12.72;94.03
72677;BME280;60755;51.374;10.662;2024-02-15T08:02:42;97419.31;;;12.77;92.80
72677;BME280;60755;51.374;10.662;2024-02-15T08:05:11;97415.31;;;12.53;94.20
72677;BME280;60755;51.374;10.662;2024-02-15T08:07:41;97420.41;;;12.43;95.17
72677;BME280;60755;51.374;10.662;2024-02-15T08:10:10;97414.25;;;12.54;94.59
72677;BME280;60755;51.374;10.662;2024-02-15T08:12:40;97415.59;;;12.56;94.21
72677;BME280;60755;51.374;10.662;2024-02-15T08:15:08;97419.13;;;12.62;94.30
72677;BME280;60755;51.374;10.662;2024-02-15T08:17:38;97425.97;;;12.63;94.17
72677;BME280;60755;51.374;10.662;2024-02-15T08:20:07;97421.25;;;12.65;93.65
72677;BME280;60755;51.374;10.662;2024-02-15T08:22:36;97428.22;;;12.71;93.50
72677;BME280;60755;51.374;10.662;2024-02-15T08:25:06;97425.50;;;12.66;93.82
72677;BME280;60755;51.374;10.662;2024-02-15T08:27:39;97436.53;;;12.63;95.38
72677;BME280;60755;51.374;10.662;2024-02-15T08:30:09;97430.28;;;12.69;94.14
72677;BME280;60755;51.374;10.662;2024-02-15T08:32:36;97434.44;;;12.65;94.88
72677;BME280;60755;51.374;10.662;2024-02-15T08:35:05;97429.59;;;12.57;94.63
72677;BME280;60755;51.374;10.662;2024-02-15T08:37:36;97430.13;;;12.59;95.68
72677;BME280;60755;51.374;10.662;2024-02-15T08:40:04;97429.97;;;12.66;94.91
72677;BME280;60755;51.374;10.662;2024-02-15T08:42:37;97431.97;;;12.58;95.08
72677;BME280;60755;51.374;10.662;2024-02-15T08:45:05;97440.38;;;12.55;96.58
72677;BME280;60755;51.374;10.662;2024-02-15T08:47:35;97429.72;;;12.67;96.07
72677;BME280;60755;51.374;10.662;2024-02-15T08:50:04;97439.38;;;12.78;94.79
72677;BME280;60755;51.374;10.662;2024-02-15T08:52:31;97437.84;;;12.82;93.95
72677;BME280;60755;51.374;10.662;2024-02-15T08:54:59;97428.22;;;12.71;95.09
72677;BME280;60755;51.374;10.662;2024-02-15T08:57:26;97425.19;;;12.63;96.12
72677;BME280;60755;51.374;10.662;2024-02-15T08:59:53;97419.44;;;12.49;97.35
72677;BME280;60755;51.374;10.662;2024-02-15T09:02:20;97425.44;;;12.61;96.50
72677;BME280;60755;51.374;10.662;2024-02-15T09:04:47;97408.03;;;12.60;96.07
72677;BME280;60755;51.374;10.662;2024-02-15T09:07:14;97410.06;;;12.97;94.28
72677;BME280;60755;51.374;10.662;2024-02-15T09:09:41;97406.69;;;12.79;95.10
72677;BME280;60755;51.374;10.662;2024-02-15T09:12:10;97413.16;;;13.10;94.66
72677;BME280;60755;51.374;10.662;2024-02-15T09:14:38;97413.09;;;12.83;95.55
72677;BME280;60755;51.374;10.662;2024-02-15T09:17:05;97413.94;;;13.11;94.43
72677;BME280;60755;51.374;10.662;2024-02-15T09:19:33;97418.53;;;12.99;93.86
72677;BME280;60755;51.374;10.662;2024-02-15T09:22:00;97419.56;;;12.98;93.99
72677;BME280;60755;51.374;10.662;2024-02-15T09:24:30;97419.38;;;12.82;94.64
72677;BME280;60755;51.374;10.662;2024-02-15T09:26:58;97415.59;;;12.56;96.49
72677;BME280;60755;51.374;10.662;2024-02-15T09:29:28;97415.84;;;12.94;95.41
72677;BME280;60755;51.374;10.662;2024-02-15T09:31:55;97414.66;;;13.06;93.69
72677;BME280;60755;51.374;10.662;2024-02-15T09:34:23;97420.31;;;12.93;95.54
72677;BME280;60755;51.374;10.662;2024-02-15T09:36:50;97415.53;;;12.90;95.28
72677;BME280;60755;51.374;10.662;2024-02-15T09:39:17;97426.75;;;12.80;95.24
72677;BME280;60755;51.374;10.662;2024-02-15T09:41:44;97424.69;;;13.26;94.84
72677;BME280;60755;51.374;10.662;2024-02-15T09:44:11;97411.94;;;13.40;92.94
72677;BME280;60755;51.374;10.662;2024-02-15T09:46:43;97414.91;;;13.49;91.10
72677;BME280;60755;51.374;10.662;2024-02-15T09:49:11;97412.31;;;13.27;92.63
72677;BME280;60755;51.374;10.662;2024-02-15T09:51:40;97418.13;;;13.29;93.24
72677;BME280;60755;51.374;10.662;2024-02-15T09:54:08;97410.19;;;13.07;94.51
72677;BME280;60755;51.374;10.662;2024-02-15T09:56:38;97411.72;;;13.03;94.66
72677;BME280;60755;51.374;10.662;2024-02-15T09:59:05;97407.44;;;12.97;94.44
72677;BME280;60755;51.374;10.662;2024-02-15T10:01:34;97411.53;;;12.87;95.01
72677;BME280;60755;51.374;10.662;2024-02-15T10:04:05;97411.25;;;12.67;96.25
72677;BME280;60755;51.374;10.662;2024-02-15T10:06:33;97415.03;;;12.93;95.55
72677;BME280;60755;51.374;10.662;2024-02-15T10:09:25;97415.84;;;12.94;95.94
72677;BME280;60755;51.374;10.662;2024-02-15T10:11:54;97413.88;;;12.84;95.72
72677;BME280;60755;51.374;10.662;2024-02-15T10:14:23;97418.38;;;13.27;94.01
72677;BME280;60755;51.374;10.662;2024-02-15T10:16:50;97419.03;;;13.18;94.05
72677;BME280;60755;51.374;10.662;2024-02-15T10:19:20;97416.25;;;13.24;93.30
72677;BME280;60755;51.374;10.662;2024-02-15T10:21:53;97419.47;;;13.09;93.21
72677;BME280;60755;51.374;10.662;2024-02-15T10:24:22;97420.94;;;13.22;93.72
72677;BME280;60755;51.374;10.662;2024-02-15T10:26:50;97416.81;;;12.87;94.47
72677;BME280;60755;51.374;10.662;2024-02-15T10:29:19;97420.03;;;13.33;94.06
72677;BME280;60755;51.374;10.662;2024-02-15T10:31:54;97420.63;;;13.40;92.41
72677;BME280;60755;51.374;10.662;2024-02-15T10:34:22;97413.25;;;13.42;92.11
72677;BME280;60755;51.374;10.662;2024-02-15T10:36:51;97410.75;;;13.85;89.95
72677;BME280;60755;51.374;10.662;2024-02-15T10:39:18;97412.97;;;13.66;91.52
72677;BME280;60755;51.374;10.662;2024-02-15T10:41:47;97412.16;;;13.92;90.89
72677;BME280;60755;51.374;10.662;2024-02-15T10:44:16;97398.28;;;14.44;87.49
72677;BME280;60755;51.374;10.662;2024-02-15T10:46:45;97398.91;;;14.24;87.58
72677;BME280;60755;51.374;10.662;2024-02-15T10:49:17;97401.44;;;14.04;89.40
72677;BME280;60755;51.374;10.662;2024-02-15T10:51:51;97398.97;;;14.35;87.36
72677;BME280;60755;51.374;10.662;2024-02-15T10:54:34;97395.41;;;14.46;87.69
72677;BME280;60755;51.374;10.662;2024-02-15T10:57:05;97399.06;;;14.87;85.55
72677;BME280;60755;51.374;10.662;2024-02-15T10:59:35;97397.38;;;14.71;86.79
72677;BME280;60755;51.374;10.662;2024-02-15T11:02:23;97398.03;;;14.98;84.51
72677;BME280;60755;51.374;10.662;2024-02-15T11:04:53;97402.22;;;14.84;85.26
72677;BME280;60755;51.374;10.662;2024-02-15T11:07:25;97396.38;;;14.40;87.60
72677;BME280;60755;51.374;10.662;2024-02-15T11:09:53;97393.25;;;14.95;85.25
72677;BME280;60755;51.374;10.662;2024-02-15T11:12:22;97386.41;;;15.04;84.28
72677;BME280;60755;51.374;10.662;2024-02-15T11:14:50;97381.31;;;14.88;85.81
72677;BME280;60755;51.374;10.662;2024-02-15T11:17:45;97373.16;;;14.94;84.01
72677;BME280;60755;51.374;10.662;2024-02-15T11:20:50;97377.06;;;14.81;85.31
72677;BME280;60755;51.374;10.662;2024-02-15T11:23:26;97378.00;;;15.23;83.74
72677;BME280;60755;51.374;10.662;2024-02-15T11:25:54;97371.94;;;15.37;82.32
72677;BME280;60755;51.374;10.662;2024-02-15T11:28:37;97370.13;;;15.58;82.40
72677;BME280;60755;51.374;10.662;2024-02-15T11:31:10;97378.06;;;15.48;83.24
72677;BME280;60755;51.374;10.662;2024-02-15T11:33:38;97371.78;;;15.85;81.02
72677;BME280;60755;51.374;10.662;2024-02-15T11:36:07;97373.34;;;16.16;79.62
72677;BME280;60755;51.374;10.662;2024-02-15T11:38:36;97374.84;;;16.63;78.51
72677;BME280;60755;51.374;10.662;2024-02-15T11:41:03;97372.78;;;16.45;80.52
72677;BME280;60755;51.374;10.662;2024-02-15T11:43:51;97369.03;;;16.76;78.03
72677;BME280;60755;51.374;10.662;2024-02-15T11:46:25;97371.78;;;16.00;79.29
72677;BME280;60755;51.374;10.662;2024-02-15T11:48:56;97374.69;;;16.14;78.93
72677;BME280;60755;51.374;10.662;2024-02-15T11:51:28;97376.81;;;15.66;81.36
72677;BME280;60755;51.374;10.662;2024-02-15T11:54:04;97375.13;;;15.34;81.01
72677;BME280;60755;51.374;10.662;2024-02-15T11:56:51;97377.94;;;15.02;82.11
72677;BME280;60755;51.374;10.662;2024-02-15T11:59:20;97374.38;;;15.59;79.51
72677;BME280;60755;51.374;10.662;2024-02-15T12:01:58;97370.13;;;15.48;80.68
72677;BME280;60755;51.374;10.662;2024-02-15T12:04:43;97361.06;;;15.29;82.69
72677;BME280;60755;51.374;10.662;2024-02-15T12:07:27;97358.78;;;15.68;80.77
72677;BME280;60755;51.374;10.662;2024-02-15T12:10:17;97360.66;;;15.98;79.78
72677;BME280;60755;51.374;10.662;2024-02-15T12:13:17;97350.03;;;15.78;79.94
72677;BME280;60755;51.374;10.662;2024-02-15T12:16:07;97357.19;;;15.67;81.21
72677;BME280;60755;51.374;10.662;2024-02-15T12:18:52;97353.41;;;15.37;81.70
72677;BME280;60755;51.374;10.662;2024-02-15T12:21:22;97352.13;;;15.60;81.29
72677;BME280;60755;51.374;10.662;2024-02-15T12:23:51;97357.72;;;15.84;80.00
72677;BME280;60755;51.374;10.662;2024-02-15T12:26:20;97357.19;;;15.92;78.69
72677;BME280;60755;51.374;10.662;2024-02-15T12:28:52;97356.41;;;15.92;78.36
72677;BME280;60755;51.374;10.662;2024-02-15T12:31:22;97345.50;;;15.53;81.18
72677;BME280;60755;51.374;10.662;2024-02-15T12:34:00;97350.25;;;15.51;80.36
72677;BME280;60755;51.374;10.662;2024-02-15T12:36:27;97354.22;;;15.53;81.07
72677;BME280;60755;51.374;10.662;2024-02-15T12:38:59;97348.66;;;15.50;80.45
72677;BME280;60755;51.374;10.662;2024-02-15T12:41:27;97351.63;;;15.84;79.54
72677;BME280;60755;51.374;10.662;2024-02-15T12:43:56;97336.78;;;15.93;77.55
72677;BME280;60755;51.374;10.662;2024-02-15T12:46:23;97339.44;;;15.83;78.83
72677;BME280;60755;51.374;10.662;2024-02-15T12:49:06;97340.47;;;15.51;80.31
72677;BME280;60755;51.374;10.662;2024-02-15T12:51:33;97334.63;;;15.34;80.55
72677;BME280;60755;51.374;10.662;2024-02-15T12:54:08;97338.88;;;15.60;80.26
72677;BME280;60755;51.374;10.662;2024-02-15T12:56:36;97327.75;;;15.63;81.06
72677;BME280;60755;51.374;10.662;2024-02-15T12:59:05;97333.09;;;15.89;79.73
72677;BME280;60755;51.374;10.662;2024-02-15T13:01:32;97338.63;;;15.57;81.42